sensor_id;sensor_type;location;lat;lon;timestamp;temperature;humidity
43665;DHT22;29263;48.172;11.484;2023-11-18T00:00:00;5.10;99.90
43665;DHT22;29263;48.172;11.484;2023-11-18T00:02:26;5.10;99.90
43665;DHT22;29263;48.172;11.484;2023-11-18T00:04:51;5.10;99.90
43665;DHT22;29263;48.172;11.484;2023-11-18T00:07:17;5.10;99.90
43665;DHT22;29263;48.172;11.484;2023-11-18T00:09:42;5.10;99.90
43665;DHT22;29263;48.172;11.484;2023-11-18T00:12:12;5.10;99.90
43665;DHT22;29263;48.172;11.484;2023-11-18T00:14:37;5.10;99.90
43665;DHT22;29263;48.172;11.484;2023-11-18T00:17:03;5.10;99.90
43665;DHT22;29263;48.172;11.484;2023-11-18T00:19:29;5.10;99.90
43665;DHT22;29263;48.172;11.484;2023-11-18T00:21:55;5.10;99.90
43665;DHT22;29263;48.172;11.484;2023-11-18T00:24:21;5.10;99.90
43665;DHT22;29263;48.172;11.484;2023-11-18T00:26:46;5.10;99.90
43665;DHT22;29263;48.172;11.484;2023-11-18T00:29:12;5.10;99.90
43665;DHT22;29263;48.172;11.484;2023-11-18T00:31:38;5.10;99.90
43665;DHT22;29263;48.172;11.484;2023-11-18T00:34:03;5.10;99.90
43665;DHT22;29263;48.172;11.484;2023-11-18T00:36:29;5.10;99.90
43665;DHT22;29263;48.172;11.484;2023-11-18T00:38:55;5.10;99.90
43665;DHT22;29263;48.172;11.484;2023-11-18T00:41:20;5.10;99.90
43665;DHT22;29263;48.172;11.484;2023-11-18T00:43:47;5.10;99.90
43665;DHT22;29263;48.172;11.484;2023-11-18T00:46:12;5.10;99.90
43665;DHT22;29263;48.172;11.484;2023-11-18T00:48:38;5.10;99.90
43665;DHT22;29263;48.172;11.484;2023-11-18T00:51:05;5.10;99.90
43665;DHT22;29263;48.172;11.484;2023-11-18T00:53:31;5.10;99.90
43665;DHT22;29263;48.172;11.484;2023-11-18T00:55:57;5.10;99.90
43665;DHT22;29263;48.172;11.484;2023-11-18T00:58:22;5.00;99.90
43665;DHT22;29263;48.172;11.484;2023-11-18T01:00:48;5.00;99.90
43665;DHT22;29263;48.172;11.484;2023-11-18T01:03:13;5.00;99.90
43665;DHT22;29263;48.172;11.484;2023-11-18T01:05:39;5.00;99.90
43665;DHT22;29263;48.172;11.484;2023-11-18T01:08:05;5.00;99.90
43665;DHT22;29263;48.172;11.484;2023-11-18T01:10:30;4.90;99.90
43665;DHT22;29263;48.172;11.484;2023-11-18T01:12:56;5.00;99.90
43665;DHT22;29263;48.172;11.484;2023-11-18T01:15:23;4.90;99.90
43665;DHT22;29263;48.172;11.484;2023-11-18T01:17:49;4.90;99.90
43665;DHT22;29263;48.172;11.484;2023-11-18T01:20:15;4.90;99.90
43665;DHT22;29263;48.172;11.484;2023-11-18T01:22:46;4.90;99.90
43665;DHT22;29263;48.172;11.484;2023-11-18T01:25:14;4.80;99.90
43665;DHT22;29263;48.172;11.484;2023-11-18T01:27:43;4.90;99.90
43665;DHT22;29263;48.172;11.484;2023-11-18T01:30:12;4.90;99.90
43665;DHT22;29263;48.172;11.484;2023-11-18T01:32:38;4.90;99.90
43665;DHT22;29263;48.172;11.484;2023-11-18T01:35:05;4.90;99.90
43665;DHT22;29263;48.172;11.484;2023-11-18T01:37:31;4.90;99.90
43665;DHT22;29263;48.172;11.484;2023-11-18T01:39:57;4.80;99.90
43665;DHT22;29263;48.172;11.484;2023-11-18T01:42:23;4.80;99.90
43665;DHT22;29263;48.172;11.484;2023-11-18T01:44:48;4.80;99.90
43665;DHT22;29263;48.172;11.484;2023-11-18T01:47:14;4.80;99.90
43665;DHT22;29263;48.172;11.484;2023-11-18T01:49:40;4.80;99.90
43665;DHT22;29263;48.172;11.484;2023-11-18T01:52:07;4.80;99.90
43665;DHT22;29263;48.172;11.484;2023-11-18T01:54:34;4.90;99.90
43665;DHT22;29263;48.172;11.484;2023-11-18T01:57:03;4.90;99.90
43665;DHT22;29263;48.172;11.484;2023-11-18T01:59:32;4.90;99.90
43665;DHT22;29263;48.172;11.484;2023-11-18T02:01:59;4.90;99.90
43665;DHT22;29263;48.172;11.484;2023-11-18T02:04:25;4.90;99.90
43665;DHT22;29263;48.172;11.484;2023-11-18T02:06:52;4.80;99.90
43665;DHT22;29263;48.172;11.484;2023-11-18T02:09:19;4.80;99.90
43665;DHT22;29263;48.172;11.484;2023-11-18T02:11:58;4.80;99.90
43665;DHT22;29263;48.172;11.484;2023-11-18T02:14:27;4.80;99.90
43665;DHT22;29263;48.172;11.484;2023-11-18T02:16:56;4.80;99.90
43665;DHT22;29263;48.172;11.484;2023-11-18T02:19:24;4.80;99.90
43665;DHT22;29263;48.172;11.484;2023-11-18T02:21:52;4.90;99.90
43665;DHT22;29263;48.172;11.484;2023-11-18T02:24:28;4.90;99.90
43665;DHT22;29263;48.172;11.484;2023-11-18T02:26:59;4.90;99.90
43665;DHT22;29263;48.172;11.484;2023-11-18T02:29:27;4.90;99.90
43665;DHT22;29263;48.172;11.484;2023-11-18T02:31:58;4.80;99.90
43665;DHT22;29263;48.172;11.484;2023-11-18T02:34:30;4.90;99.90
43665;DHT22;29263;48.172;11.484;2023-11-18T02:36:58;4.90;99.90
43665;DHT22;29263;48.172;11.484;2023-11-18T02:39:46;4.90;99.90
43665;DHT22;29263;48.172;11.484;2023-11-18T02:42:16;4.80;99.90
43665;DHT22;29263;48.172;11.484;2023-11-18T02:44:42;4.90;99.90
43665;DHT22;29263;48.172;11.484;2023-11-18T02:47:09;4.90;99.90
43665;DHT22;29263;48.172;11.484;2023-11-18T02:49:35;4.90;99.90
43665;DHT22;29263;48.172;11.484;2023-11-18T02:52:01;4.90;99.90
43665;DHT22;29263;48.172;11.484;2023-11-18T02:54:26;4.90;99.90
43665;DHT22;29263;48.172;11.484;2023-11-18T02:56:52;4.80;99.90
43665;DHT22;29263;48.172;11.484;2023-11-18T02:59:18;4.80;99.90
43665;DHT22;29263;48.172;11.484;2023-11-18T03:01:44;4.80;99.90
43665;DHT22;29263;48.172;11.484;2023-11-18T03:04:10;4.80;99.90
43665;DHT22;29263;48.172;11.484;2023-11-18T03:06:35;4.80;99.90
43665;DHT22;29263;48.172;11.484;2023-11-18T03:09:02;4.80;99.90
43665;DHT22;29263;48.172;11.484;2023-11-18T03:11:28;4.80;99.90
43665;DHT22;29263;48.172;11.484;2023-11-18T03:13:56;4.80;99.90
43665;DHT22;29263;48.172;11.484;2023-11-18T03:16:23;4.80;99.90
43665;DHT22;29263;48.172;11.484;2023-11-18T03:18:50;4.70;99.90
43665;DHT22;29263;48.172;11.484;2023-11-18T03:21:16;4.80;99.90
43665;DHT22;29263;48.172;11.484;2023-11-18T03:23:42;4.80;99.90
43665;DHT22;29263;48.172;11.484;2023-11-18T03:26:08;4.80;99.90
43665;DHT22;29263;48.172;11.484;2023-11-18T03:28:35;4.70;99.90
43665;DHT22;29263;48.172;11.484;2023-11-18T03:31:03;4.80;99.90
43665;DHT22;29263;48.172;11.484;2023-11-18T03:33:29;4.80;99.90
43665;DHT22;29263;48.172;11.484;2023-11-18T03:35:54;4.80;99.90
43665;DHT22;29263;48.172;11.484;2023-11-18T03:38:21;4.80;99.90
43665;DHT22;29263;48.172;11.484;2023-11-18T03:40:47;4.80;99.90
43665;DHT22;29263;48.172;11.484;2023-11-18T03:43:13;4.80;99.90
43665;DHT22;29263;48.172;11.484;2023-11-18T03:45:42;4.90;99.90
43665;DHT22;29263;48.172;11.484;2023-11-18T03:48:08;4.80;99.90
43665;DHT22;29263;48.172;11.484;2023-11-18T03:50:34;4.80;99.90
43665;DHT22;29263;48.172;11.484;2023-11-18T03:53:00;4.80;99.90
43665;DHT22;29263;48.172;11.484;2023-11-18T03:55:26;4.80;99.90
43665;DHT22;29263;48.172;11.484;2023-11-18T03:57:52;4.80;99.90
43665;DHT22;29263;48.172;11.484;2023-11-18T04:00:19;4.80;99.90
43665;DHT22;29263;48.172;11.484;2023-11-18T04:02:46;4.80;99.90
43665;DHT22;29263;48.172;11.484;2023-11-18T04:05:12;4.90;99.90
43665;DHT22;29263;48.172;11.484;2023-11-18T04:07:38;4.90;99.90
43665;DHT22;29263;48.172;11.484;2023-11-18T04:10:08;4.90;99.90
43665;DHT22;29263;48.172;11.484;2023-11-18T04:12:36;4.90;99.90
43665;DHT22;29263;48.172;11.484;2023-11-18T04:15:04;4.90;99.90
43665;DHT22;29263;48.172;11.484;2023-11-18T04:17:33;4.90;99.90
43665;DHT22;29263;48.172;11.484;2023-11-18T04:19:59;4.90;99.90
43665;DHT22;29263;48.172;11.484;2023-11-18T04:22:24;4.90;99.90
43665;DHT22;29263;48.172;11.484;2023-11-18T04:24:50;4.90;99.90
43665;DHT22;29263;48.172;11.484;2023-11-18T04:27:16;4.90;99.90
43665;DHT22;29263;48.172;11.484;2023-11-18T04:29:42;4.90;99.90
43665;DHT22;29263;48.172;11.484;2023-11-18T04:32:08;4.90;99.90
43665;DHT22;29263;48.172;11.484;2023-11-18T04:34:37;4.90;99.90
43665;DHT22;29263;48.172;11.484;2023-11-18T04:37:05;4.80;99.90
43665;DHT22;29263;48.172;11.484;2023-11-18T04:39:34;4.80;99.90
43665;DHT22;29263;48.172;11.484;2023-11-18T04:42:00;4.90;99.90
43665;DHT22;29263;48.172;11.484;2023-11-18T04:44:27;4.80;99.90
43665;DHT22;29263;48.172;11.484;2023-11-18T04:46:52;4.80;99.90
43665;DHT22;29263;48.172;11.484;2023-11-18T04:49:18;4.80;99.90
43665;DHT22;29263;48.172;11.484;2023-11-18T04:51:44;4.80;99.90
43665;DHT22;29263;48.172;11.484;2023-11-18T04:54:10;4.70;99.90
43665;DHT22;29263;48.172;11.484;2023-11-18T04:56:36;4.70;99.90
43665;DHT22;29263;48.172;11.484;2023-11-18T04:59:04;4.80;99.90
43665;DHT22;29263;48.172;11.484;2023-11-18T05:01:31;4.70;99.90
43665;DHT22;29263;48.172;11.484;2023-11-18T05:03:57;4.70;99.90
43665;DHT22;29263;48.172;11.484;2023-11-18T05:06:23;4.70;99.90
43665;DHT22;29263;48.172;11.484;2023-11-18T05:08:48;4.80;99.90
43665;DHT22;29263;48.172;11.484;2023-11-18T05:11:15;4.80;99.90
43665;DHT22;29263;48.172;11.484;2023-11-18T05:13:41;4.80;99.90
43665;DHT22;29263;48.172;11.484;2023-11-18T05:16:07;4.80;99.90
43665;DHT22;29263;48.172;11.484;2023-11-18T05:18:32;4.80;99.90
43665;DHT22;29263;48.172;11.484;2023-11-18T05:21:01;4.80;99.90
43665;DHT22;29263;48.172;11.484;2023-11-18T05:23:28;4.80;99.90
43665;DHT22;29263;48.172;11.484;2023-11-18T05:25:57;4.80;99.90
43665;DHT22;29263;48.172;11.484;2023-11-18T05:28:24;4.90;99.90
43665;DHT22;29263;48.172;11.484;2023-11-18T05:30:50;4.80;99.90
43665;DHT22;29263;48.172;11.484;2023-11-18T05:33:19;4.80;99.90
43665;DHT22;29263;48.172;11.484;2023-11-18T05:35:45;4.70;99.90
43665;DHT22;29263;48.172;11.484;2023-11-18T05:38:18;4.70;99.90
43665;DHT22;29263;48.172;11.484;2023-11-18T05:40:53;4.70;99.90
43665;DHT22;29263;48.172;11.484;2023-11-18T05:43:26;4.70;99.90
43665;DHT22;29263;48.172;11.484;2023-11-18T05:45:57;4.70;99.90
43665;DHT22;29263;48.172;11.484;2023-11-18T05:48:42;4.70;99.90
43665;DHT22;29263;48.172;11.484;2023-11-18T05:51:08;4.70;99.90
43665;DHT22;29263;48.172;11.484;2023-11-18T05:53:33;4.80;99.90
43665;DHT22;29263;48.172;11.484;2023-11-18T05:55:59;4.80;99.90
43665;DHT22;29263;48.172;11.484;2023-11-18T05:58:25;4.80;99.90
43665;DHT22;29263;48.172;11.484;2023-11-18T06:00:50;4.80;99.90
43665;DHT22;29263;48.172;11.484;2023-11-18T06:03:16;4.80;99.90
43665;DHT22;29263;48.172;11.484;2023-11-18T06:05:42;4.80;99.90
43665;DHT22;29263;48.172;11.484;2023-11-18T06:08:08;4.80;99.90
43665;DHT22;29263;48.172;11.484;2023-11-18T06:10:34;4.80;99.90
43665;DHT22;29263;48.172;11.484;2023-11-18T06:13:00;4.80;99.90
43665;DHT22;29263;48.172;11.484;2023-11-18T06:15:26;4.80;99.90
43665;DHT22;29263;48.172;11.484;2023-11-18T06:17:53;4.80;99.90
43665;DHT22;29263;48.172;11.484;2023-11-18T06:20:21;4.80;99.90
43665;DHT22;29263;48.172;11.484;2023-11-18T06:22:49;4.80;99.90
43665;DHT22;29263;48.172;11.484;2023-11-18T06:25:14;4.80;99.90
43665;DHT22;29263;48.172;11.484;2023-11-18T06:27:43;4.90;99.90
43665;DHT22;29263;48.172;11.484;2023-11-18T06:30:11;4.90;99.90
43665;DHT22;29263;48.172;11.484;2023-11-18T06:32:37;4.80;99.90
43665;DHT22;29263;48.172;11.484;2023-11-18T06:35:04;4.80;99.90
43665;DHT22;29263;48.172;11.484;2023-11-18T06:37:34;4.90;99.90
43665;DHT22;29263;48.172;11.484;2023-11-18T06:39:59;4.80;99.90
43665;DHT22;29263;48.172;11.484;2023-11-18T06:42:25;4.80;99.90
43665;DHT22;29263;48.172;11.484;2023-11-18T06:44:50;4.80;99.90
43665;DHT22;29263;48.172;11.484;2023-11-18T06:47:16;4.80;99.90
43665;DHT22;29263;48.172;11.484;2023-11-18T06:49:44;4.80;99.90
43665;DHT22;29263;48.172;11.484;2023-11-18T06:52:10;4.80;99.90
43665;DHT22;29263;48.172;11.484;2023-11-18T06:54:41;4.80;99.90
43665;DHT22;29263;48.172;11.484;2023-11-18T06:57:06;4.80;99.90
43665;DHT22;29263;48.172;11.484;2023-11-18T06:59:32;4.90;99.90
43665;DHT22;29263;48.172;11.484;2023-11-18T07:01:58;4.90;99.90
43665;DHT22;29263;48.172;11.484;2023-11-18T07:04:24;4.90;99.90
43665;DHT22;29263;48.172;11.484;2023-11-18T07:06:50;4.90;99.90
43665;DHT22;29263;48.172;11.484;2023-11-18T07:09:16;4.90;99.90
43665;DHT22;29263;48.172;11.484;2023-11-18T07:11:46;5.00;99.90
43665;DHT22;29263;48.172;11.484;2023-11-18T07:14:13;4.90;99.90
43665;DHT22;29263;48.172;11.484;2023-11-18T07:16:41;5.00;99.90
43665;DHT22;29263;48.172;11.484;2023-11-18T07:19:07;4.90;99.90
43665;DHT22;29263;48.172;11.484;2023-11-18T07:21:34;5.00;99.90
43665;DHT22;29263;48.172;11.484;2023-11-18T07:24:00;5.00;99.90
43665;DHT22;29263;48.172;11.484;2023-11-18T07:26:27;5.00;99.90
43665;DHT22;29263;48.172;11.484;2023-11-18T07:28:53;5.00;99.90
43665;DHT22;29263;48.172;11.484;2023-11-18T07:31:19;5.00;99.90
43665;DHT22;29263;48.172;11.484;2023-11-18T07:33:45;5.00;99.90
43665;DHT22;29263;48.172;11.484;2023-11-18T07:36:15;5.10;99.90
43665;DHT22;29263;48.172;11.484;2023-11-18T07:38:41;5.10;99.90
43665;DHT22;29263;48.172;11.484;2023-11-18T07:41:07;5.20;99.90
43665;DHT22;29263;48.172;11.484;2023-11-18T07:43:37;5.20;99.90
43665;DHT22;29263;48.172;11.484;2023-11-18T07:46:03;5.20;99.90
43665;DHT22;29263;48.172;11.484;2023-11-18T07:48:28;5.30;99.90
43665;DHT22;29263;48.172;11.484;2023-11-18T07:50:56;5.30;99.90
43665;DHT22;29263;48.172;11.484;2023-11-18T07:53:42;5.30;99.90
43665;DHT22;29263;48.172;11.484;2023-11-18T07:56:07;5.40;99.90
43665;DHT22;29263;48.172;11.484;2023-11-18T07:58:36;5.40;99.90
43665;DHT22;29263;48.172;11.484;2023-11-18T08:01:03;5.50;99.90
43665;DHT22;29263;48.172;11.484;2023-11-18T08:03:33;5.50;99.90
43665;DHT22;29263;48.172;11.484;2023-11-18T08:05:58;5.50;99.90
43665;DHT22;29263;48.172;11.484;2023-11-18T08:08:24;5.60;99.90
43665;DHT22;29263;48.172;11.484;2023-11-18T08:10:51;5.60;99.90
43665;DHT22;29263;48.172;11.484;2023-11-18T08:13:16;5.60;99.90
43665;DHT22;29263;48.172;11.484;2023-11-18T08:15:43;5.60;99.90
43665;DHT22;29263;48.172;11.484;2023-11-18T08:18:12;5.70;99.90
43665;DHT22;29263;48.172;11.484;2023-11-18T08:20:38;5.70;99.90
43665;DHT22;29263;48.172;11.484;2023-11-18T08:23:04;5.80;99.90
43665;DHT22;29263;48.172;11.484;2023-11-18T08:25:32;5.80;99.90
43665;DHT22;29263;48.172;11.484;2023-11-18T08:28:06;5.80;99.90
43665;DHT22;29263;48.172;11.484;2023-11-18T08:30:33;5.90;99.90
43665;DHT22;29263;48.172;11.484;2023-11-18T08:33:01;5.90;99.90
43665;DHT22;29263;48.172;11.484;2023-11-18T08:35:29;5.90;99.90
43665;DHT22;29263;48.172;11.484;2023-11-18T08:37:56;6.00;99.90
43665;DHT22;29263;48.172;11.484;2023-11-18T08:40:21;6.10;99.90
43665;DHT22;29263;48.172;11.484;2023-11-18T08:42:51;6.10;99.90
43665;DHT22;29263;48.172;11.484;2023-11-18T08:45:17;6.10;99.90
43665;DHT22;29263;48.172;11.484;2023-11-18T08:47:47;6.10;99.90
43665;DHT22;29263;48.172;11.484;2023-11-18T08:50:16;6.20;99.90
43665;DHT22;29263;48.172;11.484;2023-11-18T08:52:43;6.20;99.90
43665;DHT22;29263;48.172;11.484;2023-11-18T08:55:12;6.20;99.90
43665;DHT22;29263;48.172;11.484;2023-11-18T08:57:43;6.20;99.90
43665;DHT22;29263;48.172;11.484;2023-11-18T09:00:38;6.20;99.90
43665;DHT22;29263;48.172;11.484;2023-11-18T09:03:21;6.30;99.90
43665;DHT22;29263;48.172;11.484;2023-11-18T09:05:57;6.40;99.90
43665;DHT22;29263;48.172;11.484;2023-11-18T09:08:31;6.40;99.90
43665;DHT22;29263;48.172;11.484;2023-11-18T09:11:14;6.50;99.90
43665;DHT22;29263;48.172;11.484;2023-11-18T09:13:42;6.50;99.90
43665;DHT22;29263;48.172;11.484;2023-11-18T09:16:11;6.50;99.90
43665;DHT22;29263;48.172;11.484;2023-11-18T09:18:41;6.60;99.90
43665;DHT22;29263;48.172;11.484;2023-11-18T09:21:08;6.60;99.90
43665;DHT22;29263;48.172;11.484;2023-11-18T09:23:40;6.70;99.90
43665;DHT22;29263;48.172;11.484;2023-11-18T09:26:06;6.70;99.90
43665;DHT22;29263;48.172;11.484;2023-11-18T09:28:36;6.80;99.90
43665;DHT22;29263;48.172;11.484;2023-11-18T09:31:02;6.90;99.90
43665;DHT22;29263;48.172;11.484;2023-11-18T09:33:30;7.00;99.90
43665;DHT22;29263;48.172;11.484;2023-11-18T09:36:08;7.00;99.90
43665;DHT22;29263;48.172;11.484;2023-11-18T09:38:38;7.10;99.90
43665;DHT22;29263;48.172;11.484;2023-11-18T09:41:08;7.10;99.90
43665;DHT22;29263;48.172;11.484;2023-11-18T09:43:40;7.10;99.90
43665;DHT22;29263;48.172;11.484;2023-11-18T09:46:30;7.10;99.90
43665;DHT22;29263;48.172;11.484;2023-11-18T09:49:21;7.00;99.90
43665;DHT22;29263;48.172;11.484;2023-11-18T09:51:55;7.00;99.90
43665;DHT22;29263;48.172;11.484;2023-11-18T09:57:08;7.20;99.90
43665;DHT22;29263;48.172;11.484;2023-11-18T10:00:03;7.20;99.90
43665;DHT22;29263;48.172;11.484;2023-11-18T10:02:48;7.30;99.90
43665;DHT22;29263;48.172;11.484;2023-11-18T10:05:16;7.30;99.90
43665;DHT22;29263;48.172;11.484;2023-11-18T10:07:46;7.30;99.90
43665;DHT22;29263;48.172;11.484;2023-11-18T10:10:19;7.30;99.90
43665;DHT22;29263;48.172;11.484;2023-11-18T10:12:52;7.30;99.90
43665;DHT22;29263;48.172;11.484;2023-11-18T10:15:19;7.40;99.90
43665;DHT22;29263;48.172;11.484;2023-11-18T10:17:49;7.30;99.90
43665;DHT22;29263;48.172;11.484;2023-11-18T10:20:46;7.30;99.90
43665;DHT22;29263;48.172;11.484;2023-11-18T10:23:13;7.40;99.90
43665;DHT22;29263;48.172;11.484;2023-11-18T10:28:25;7.60;99.90
43665;DHT22;29263;48.172;11.484;2023-11-18T10:30:58;7.60;99.90
43665;DHT22;29263;48.172;11.484;2023-11-18T10:33:28;7.60;99.90
43665;DHT22;29263;48.172;11.484;2023-11-18T10:35:56;7.60;99.90
43665;DHT22;29263;48.172;11.484;2023-11-18T10:38:23;7.70;99.90
43665;DHT22;29263;48.172;11.484;2023-11-18T10:40:55;7.70;99.90
43665;DHT22;29263;48.172;11.484;2023-11-18T10:43:22;7.90;99.90
43665;DHT22;29263;48.172;11.484;2023-11-18T10:45:52;8.00;99.90
43665;DHT22;29263;48.172;11.484;2023-11-18T10:48:18;8.10;99.90
43665;DHT22;29263;48.172;11.484;2023-11-18T10:50:49;8.20;99.90
43665;DHT22;29263;48.172;11.484;2023-11-18T10:53:18;8.20;99.90
43665;DHT22;29263;48.172;11.484;2023-11-18T10:55:44;8.20;99.90
43665;DHT22;29263;48.172;11.484;2023-11-18T10:58:10;8.20;99.90
43665;DHT22;29263;48.172;11.484;2023-11-18T11:00:49;8.10;99.90
43665;DHT22;29263;48.172;11.484;2023-11-18T11:03:16;8.10;99.90
43665;DHT22;29263;48.172;11.484;2023-11-18T11:05:43;8.00;99.90
43665;DHT22;29263;48.172;11.484;2023-11-18T11:08:13;8.00;99.90
43665;DHT22;29263;48.172;11.484;2023-11-18T11:10:43;8.00;99.90
43665;DHT22;29263;48.172;11.484;2023-11-18T11:13:09;8.00;99.90
43665;DHT22;29263;48.172;11.484;2023-11-18T11:15:41;8.00;99.90
43665;DHT22;29263;48.172;11.484;2023-11-18T11:18:12;8.10;99.90
43665;DHT22;29263;48.172;11.484;2023-11-18T11:21:14;8.20;99.90
43665;DHT22;29263;48.172;11.484;2023-11-18T11:24:05;8.30;99.90
43665;DHT22;29263;48.172;11.484;2023-11-18T11:27:25;8.40;99.90
43665;DHT22;29263;48.172;11.484;2023-11-18T11:30:10;8.40;99.90
43665;DHT22;29263;48.172;11.484;2023-11-18T11:32:47;8.40;99.90
43665;DHT22;29263;48.172;11.484;2023-11-18T11:35:20;8.40;99.90
43665;DHT22;29263;48.172;11.484;2023-11-18T11:37:48;8.30;99.90
43665;DHT22;29263;48.172;11.484;2023-11-18T11:40:16;8.20;99.90
43665;DHT22;29263;48.172;11.484;2023-11-18T11:42:49;8.20;99.90
43665;DHT22;29263;48.172;11.484;2023-11-18T11:45:22;8.20;99.90
43665;DHT22;29263;48.172;11.484;2023-11-18T11:47:51;8.20;99.90
43665;DHT22;29263;48.172;11.484;2023-11-18T11:50:19;8.20;99.90
43665;DHT22;29263;48.172;11.484;2023-11-18T11:52:53;8.10;99.90
43665;DHT22;29263;48.172;11.484;2023-11-18T11:55:40;8.10;99.90
43665;DHT22;29263;48.172;11.484;2023-11-18T11:58:29;8.10;99.90
43665;DHT22;29263;48.172;11.484;2023-11-18T12:00:58;8.00;99.90
43665;DHT22;29263;48.172;11.484;2023-11-18T12:03:24;8.00;99.90
43665;DHT22;29263;48.172;11.484;2023-11-18T12:05:54;8.00;99.90
43665;DHT22;29263;48.172;11.484;2023-11-18T12:08:22;8.00;99.90
43665;DHT22;29263;48.172;11.484;2023-11-18T12:10:54;8.10;99.90
43665;DHT22;29263;48.172;11.484;2023-11-18T12:13:21;8.20;99.90
43665;DHT22;29263;48.172;11.484;2023-11-18T12:15:54;8.10;99.90
43665;DHT22;29263;48.172;11.484;2023-11-18T12:18:25;8.20;99.90
43665;DHT22;29263;48.172;11.484;2023-11-18T12:20:51;8.20;99.90
43665;DHT22;29263;48.172;11.484;2023-11-18T12:23:21;8.20;99.90
43665;DHT22;29263;48.172;11.484;2023-11-18T12:25:51;8.20;99.90
43665;DHT22;29263;48.172;11.484;2023-11-18T12:28:27;8.20;99.90
43665;DHT22;29263;48.172;11.484;2023-11-18T12:30:56;8.20;99.90
43665;DHT22;29263;48.172;11.484;2023-11-18T12:33:27;8.20;99.90
43665;DHT22;29263;48.172;11.484;2023-11-18T12:41:36;8.30;99.90
43665;DHT22;29263;48.172;11.484;2023-11-18T12:44:15;8.30;99.90
43665;DHT22;29263;48.172;11.484;2023-11-18T12:46:51;8.40;99.90
43665;DHT22;29263;48.172;11.484;2023-11-18T12:49:24;8.40;99.90
43665;DHT22;29263;48.172;11.484;2023-11-18T12:51:53;8.40;99.90
43665;DHT22;29263;48.172;11.484;2023-11-18T12:54:20;8.40;99.90
43665;DHT22;29263;48.172;11.484;2023-11-18T12:56:50;8.50;99.90
43665;DHT22;29263;48.172;11.484;2023-11-18T12:59:19;8.50;99.90
43665;DHT22;29263;48.172;11.484;2023-11-18T13:01:50;8.50;99.90
43665;DHT22;29263;48.172;11.484;2023-11-18T13:04:28;8.50;99.90
43665;DHT22;29263;48.172;11.484;2023-11-18T13:06:54;8.50;99.90
43665;DHT22;29263;48.172;11.484;2023-11-18T13:09:23;8.50;99.90
43665;DHT22;29263;48.172;11.484;2023-11-18T13:11:56;8.50;99.90
43665;DHT22;29263;48.172;11.484;2023-11-18T13:14:26;8.50;99.90
43665;DHT22;29263;48.172;11.484;2023-11-18T13:16:53;8.50;99.90
43665;DHT22;29263;48.172;11.484;2023-11-18T13:19:28;8.30;99.90
43665;DHT22;29263;48.172;11.484;2023-11-18T13:21:58;8.30;99.90
43665;DHT22;29263;48.172;11.484;2023-11-18T13:24:25;8.30;99.90
43665;DHT22;29263;48.172;11.484;2023-11-18T13:26:55;8.30;99.90
43665;DHT22;29263;48.172;11.484;2023-11-18T13:29:23;8.30;99.90
43665;DHT22;29263;48.172;11.484;2023-11-18T13:31:50;8.20;99.90
43665;DHT22;29263;48.172;11.484;2023-11-18T13:34:20;8.20;99.90
43665;DHT22;29263;48.172;11.484;2023-11-18T13:36:49;8.10;99.90
43665;DHT22;29263;48.172;11.484;2023-11-18T13:39:19;8.10;99.90
43665;DHT22;29263;48.172;11.484;2023-11-18T13:41:48;8.10;99.90
43665;DHT22;29263;48.172;11.484;2023-11-18T13:44:34;8.10;99.90
43665;DHT22;29263;48.172;11.484;2023-11-18T13:47:01;8.10;99.90
43665;DHT22;29263;48.172;11.484;2023-11-18T13:49:28;8.10;99.90
43665;DHT22;29263;48.172;11.484;2023-11-18T13:51:55;8.10;99.90
43665;DHT22;29263;48.172;11.484;2023-11-18T13:54:22;8.10;99.90
43665;DHT22;29263;48.172;11.484;2023-11-18T13:56:49;8.10;99.90
43665;DHT22;29263;48.172;11.484;2023-11-18T13:59:15;8.00;99.90
43665;DHT22;29263;48.172;11.484;2023-11-18T14:01:42;8.10;99.90
43665;DHT22;29263;48.172;11.484;2023-11-18T14:04:08;8.10;99.90
43665;DHT22;29263;48.172;11.484;2023-11-18T14:06:35;8.10;99.90
43665;DHT22;29263;48.172;11.484;2023-11-18T14:09:01;8.10;99.90
43665;DHT22;29263;48.172;11.484;2023-11-18T14:11:26;8.10;99.90
43665;DHT22;29263;48.172;11.484;2023-11-18T14:13:52;8.20;99.90
43665;DHT22;29263;48.172;11.484;2023-11-18T14:16:19;8.20;99.90
43665;DHT22;29263;48.172;11.484;2023-11-18T14:18:46;8.20;99.90
43665;DHT22;29263;48.172;11.484;2023-11-18T14:21:13;8.20;99.90
43665;DHT22;29263;48.172;11.484;2023-11-18T14:23:39;8.20;99.90
43665;DHT22;29263;48.172;11.484;2023-11-18T14:26:06;8.10;99.90
43665;DHT22;29263;48.172;11.484;2023-11-18T14:28:33;8.10;99.90
43665;DHT22;29263;48.172;11.484;2023-11-18T14:31:01;8.10;99.90
43665;DHT22;29263;48.172;11.484;2023-11-18T14:33:30;8.10;99.90
43665;DHT22;29263;48.172;11.484;2023-11-18T14:36:01;8.00;99.90
43665;DHT22;29263;48.172;11.484;2023-11-18T14:38:27;8.00;99.90
43665;DHT22;29263;48.172;11.484;2023-11-18T14:40:53;7.90;99.90
43665;DHT22;29263;48.172;11.484;2023-11-18T14:43:19;7.80;99.90
43665;DHT22;29263;48.172;11.484;2023-11-18T14:45:45;7.70;99.90
43665;DHT22;29263;48.172;11.484;2023-11-18T14:48:10;7.70;99.90
43665;DHT22;29263;48.172;11.484;2023-11-18T14:50:36;7.60;99.90
43665;DHT22;29263;48.172;11.484;2023-11-18T14:53:03;7.50;99.90
43665;DHT22;29263;48.172;11.484;2023-11-18T14:55:29;7.40;99.90
43665;DHT22;29263;48.172;11.484;2023-11-18T14:57:56;7.30;99.90
43665;DHT22;29263;48.172;11.484;2023-11-18T15:00:22;7.20;99.90
43665;DHT22;29263;48.172;11.484;2023-11-18T15:02:51;7.10;99.90
43665;DHT22;29263;48.172;11.484;2023-11-18T15:05:17;7.10;99.90
43665;DHT22;29263;48.172;11.484;2023-11-18T15:07:50;7.00;99.90
43665;DHT22;29263;48.172;11.484;2023-11-18T15:10:34;6.90;99.90
43665;DHT22;29263;48.172;11.484;2023-11-18T15:13:02;6.90;99.90
43665;DHT22;29263;48.172;11.484;2023-11-18T15:15:30;6.80;99.90
43665;DHT22;29263;48.172;11.484;2023-11-18T15:18:01;6.80;99.90
43665;DHT22;29263;48.172;11.484;2023-11-18T15:20:30;6.70;99.90
43665;DHT22;29263;48.172;11.484;2023-11-18T15:22:56;6.70;99.90
43665;DHT22;29263;48.172;11.484;2023-11-18T15:25:22;6.70;99.90
43665;DHT22;29263;48.172;11.484;2023-11-18T15:27:48;6.60;99.90
43665;DHT22;29263;48.172;11.484;2023-11-18T15:30:15;6.60;99.90
43665;DHT22;29263;48.172;11.484;2023-11-18T15:32:43;6.60;99.90
43665;DHT22;29263;48.172;11.484;2023-11-18T15:35:09;6.50;99.90
43665;DHT22;29263;48.172;11.484;2023-11-18T15:37:39;6.40;99.90
43665;DHT22;29263;48.172;11.484;2023-11-18T15:40:08;6.30;99.90
43665;DHT22;29263;48.172;11.484;2023-11-18T15:42:40;6.40;99.90
43665;DHT22;29263;48.172;11.484;2023-11-18T15:45:19;6.30;99.90
43665;DHT22;29263;48.172;11.484;2023-11-18T15:47:46;6.30;99.90
43665;DHT22;29263;48.172;11.484;2023-11-18T15:50:14;6.40;99.90